createdAt,value
2018-08-07T00:02:19.905Z,24.00
2018-08-07T00:04:48.352Z,24.00
2018-08-07T00:07:16.828Z,24.00
2018-08-07T00:09:45.244Z,24.00
2018-08-07T00:12:13.809Z,23.90
2018-08-07T00:14:42.350Z,23.90
2018-08-07T00:17:10.833Z,23.80
2018-08-07T00:19:39.251Z,23.80
2018-08-07T00:22:07.645Z,23.70
2018-08-07T00:27:04.170Z,23.70
2018-08-07T00:29:32.600Z,23.70
2018-08-07T00:32:01.092Z,23.50
2018-08-07T00:34:29.577Z,23.50
2018-08-07T00:36:58.067Z,23.50
2018-08-07T00:39:26.481Z,23.50
2018-08-07T00:41:55.021Z,23.40
2018-08-07T00:44:24.164Z,23.40
2018-08-07T00:46:52.651Z,23.30
2018-08-07T00:49:22.042Z,23.30
2018-08-07T00:51:50.476Z,23.30
2018-08-07T00:54:18.900Z,23.30
2018-08-07T00:56:47.349Z,23.30
2018-08-07T00:59:15.728Z,23.30
2018-08-07T01:01:44.164Z,23.20
2018-08-07T01:04:12.617Z,23.10
2018-08-07T01:06:41.029Z,23.20
2018-08-07T01:09:10.156Z,23.00
2018-08-07T01:11:38.557Z,23.00
2018-08-07T01:14:07.027Z,23.00
2018-08-07T01:16:35.507Z,23.00
2018-08-07T01:19:03.920Z,22.90
2018-08-07T01:21:32.347Z,23.00
2018-08-07T01:24:00.732Z,23.00
2018-08-07T01:26:29.151Z,22.90
2018-08-07T01:28:57.690Z,22.90
2018-08-07T01:31:26.157Z,22.80
2018-08-07T01:33:54.536Z,22.80
2018-08-07T01:36:22.974Z,22.80
2018-08-07T01:38:51.410Z,22.80
2018-08-07T01:41:19.824Z,22.70
2018-08-07T01:43:48.323Z,22.70
2018-08-07T01:46:17.030Z,22.70
2018-08-07T01:51:13.636Z,22.50
2018-08-07T01:53:42.042Z,22.50
2018-08-07T01:56:10.431Z,22.50
2018-08-07T01:58:38.842Z,22.50
2018-08-07T02:01:07.247Z,22.50
2018-08-07T02:03:35.660Z,22.50
2018-08-07T02:06:04.174Z,22.40
2018-08-07T02:08:32.672Z,22.40
2018-08-07T02:11:01.111Z,22.30
2018-08-07T02:13:29.574Z,22.30
2018-08-07T02:15:58.051Z,22.30
2018-08-07T02:18:26.448Z,22.30
2018-08-07T02:20:54.993Z,22.20
2018-08-07T02:23:23.353Z,22.20
2018-08-07T02:25:51.816Z,22.10
2018-08-07T02:28:20.247Z,22.00
2018-08-07T02:30:48.677Z,21.90
2018-08-07T02:33:17.106Z,22.00
2018-08-07T02:35:45.601Z,21.90
2018-08-07T02:38:13.992Z,21.80
2018-08-07T02:40:42.433Z,21.80
2018-08-07T02:43:10.855Z,21.70
2018-08-07T02:45:39.329Z,21.60
2018-08-07T02:48:07.812Z,21.70
2018-08-07T02:50:36.303Z,21.80
2018-08-07T02:53:04.697Z,21.80
2018-08-07T02:55:33.106Z,21.80
2018-08-07T02:58:01.539Z,21.80
2018-08-07T03:00:34.213Z,21.80
2018-08-07T03:03:02.635Z,21.80
2018-08-07T03:05:31.035Z,21.80
2018-08-07T03:07:59.453Z,21.80
2018-08-07T03:10:27.841Z,21.80
2018-08-07T03:12:56.253Z,21.70
2018-08-07T03:15:24.649Z,21.70
2018-08-07T03:17:53.069Z,21.70
2018-08-07T03:20:21.432Z,21.70
2018-08-07T03:22:49.929Z,21.60
2018-08-07T03:25:18.388Z,21.50
2018-08-07T03:27:46.989Z,21.60
2018-08-07T03:30:19.924Z,21.50
2018-08-07T03:32:48.848Z,21.50
2018-08-07T03:35:17.286Z,21.50
2018-08-07T03:37:45.780Z,21.50
2018-08-07T03:40:16.131Z,21.40
2018-08-07T03:42:44.637Z,21.40
2018-08-07T03:45:14.306Z,21.40
2018-08-07T03:47:43.339Z,21.30
2018-08-07T03:50:11.985Z,21.30
2018-08-07T03:52:40.546Z,21.30
2018-08-07T03:55:11.460Z,21.30
2018-08-07T03:57:40.415Z,21.30
2018-08-07T04:00:12.676Z,21.40
2018-08-07T04:02:41.160Z,21.40
2018-08-07T04:05:09.650Z,21.30
2018-08-07T04:07:38.288Z,21.20
2018-08-07T04:10:08.808Z,21.20
2018-08-07T04:12:37.280Z,21.30
2018-08-07T04:15:07.010Z,21.30
2018-08-07T04:17:35.574Z,21.30
2018-08-07T04:20:04.705Z,21.30
2018-08-07T04:22:33.098Z,21.30
2018-08-07T04:25:01.524Z,21.30
2018-08-07T04:27:29.928Z,21.30
2018-08-07T04:29:58.379Z,21.30
2018-08-07T04:32:26.740Z,21.30
2018-08-07T04:34:55.112Z,21.30
2018-08-07T04:37:23.519Z,21.20
2018-08-07T04:39:51.920Z,21.30
2018-08-07T04:42:20.317Z,21.30
2018-08-07T04:44:48.794Z,21.20
2018-08-07T04:47:17.241Z,21.20
2018-08-07T04:49:45.652Z,21.20
2018-08-07T04:52:14.057Z,21.20
2018-08-07T04:54:42.427Z,21.20
2018-08-07T04:57:10.806Z,21.20
2018-08-07T04:59:39.224Z,21.30
2018-08-07T05:02:07.681Z,21.30
2018-08-07T05:04:36.098Z,21.40
2018-08-07T05:07:04.801Z,21.50
2018-08-07T05:09:33.172Z,21.50
2018-08-07T05:14:29.717Z,21.60
2018-08-07T05:16:58.124Z,21.70
2018-08-07T05:19:26.547Z,21.70
2018-08-07T05:21:54.921Z,21.80
2018-08-07T05:24:23.284Z,21.80
2018-08-07T05:26:51.823Z,21.80
2018-08-07T05:29:20.233Z,21.90
2018-08-07T05:31:48.658Z,21.90
2018-08-07T05:34:17.153Z,22.00
2018-08-07T05:36:45.583Z,22.00
2018-08-07T05:39:14.017Z,22.10
2018-08-07T05:41:42.560Z,22.20
2018-08-07T05:44:10.976Z,22.20
2018-08-07T05:46:39.356Z,22.30
2018-08-07T05:49:07.759Z,22.40
2018-08-07T05:51:36.218Z,22.50
2018-08-07T05:54:04.668Z,22.60
2018-08-07T05:56:33.073Z,22.60
2018-08-07T05:59:01.456Z,22.70
2018-08-07T06:01:29.947Z,22.80
2018-08-07T06:03:58.361Z,22.80
2018-08-07T06:06:26.803Z,22.80
2018-08-07T06:08:55.280Z,23.00
2018-08-07T06:11:23.758Z,23.10
2018-08-07T06:13:52.207Z,23.20
2018-08-07T06:16:20.697Z,23.20
2018-08-07T06:18:49.102Z,23.70
2018-08-07T06:21:17.496Z,23.70
2018-08-07T06:23:45.932Z,23.60
2018-08-07T06:26:14.405Z,23.60
2018-08-07T06:28:42.916Z,23.70
2018-08-07T06:31:11.224Z,23.80
2018-08-07T06:33:39.634Z,23.90
2018-08-07T06:36:08.148Z,24.00
2018-08-07T06:38:36.531Z,24.10
2018-08-07T06:41:04.916Z,24.10
2018-08-07T06:43:33.402Z,24.20
2018-08-07T06:46:01.794Z,24.30
2018-08-07T06:48:30.206Z,24.40
2018-08-07T06:50:58.717Z,24.60
2018-08-07T06:53:27.131Z,24.70
2018-08-07T06:55:55.560Z,24.90
2018-08-07T06:58:24.004Z,25.10
2018-08-07T07:00:52.772Z,25.20
2018-08-07T07:03:21.264Z,25.40
2018-08-07T07:05:49.816Z,25.60
2018-08-07T07:08:18.268Z,25.70
2018-08-07T07:10:46.700Z,25.80
2018-08-07T07:13:15.072Z,25.90
2018-08-07T07:15:43.508Z,26.10
2018-08-07T07:18:11.937Z,26.10
2018-08-07T07:20:40.352Z,26.30
2018-08-07T07:23:08.848Z,26.50
2018-08-07T07:25:37.374Z,26.50
2018-08-07T07:28:05.976Z,26.50
2018-08-07T07:30:34.436Z,26.60
2018-08-07T07:33:02.968Z,26.70
2018-08-07T07:35:31.517Z,26.70
2018-08-07T07:37:59.925Z,26.80
2018-08-07T07:40:28.502Z,26.80
2018-08-07T07:42:56.984Z,26.90
2018-08-07T07:45:25.479Z,27.00
2018-08-07T07:47:53.941Z,27.10
2018-08-07T07:52:50.875Z,27.40
2018-08-07T07:55:19.911Z,27.40
2018-08-07T07:57:49.492Z,27.60
2018-08-07T08:00:22.899Z,27.60
2018-08-07T08:02:52.313Z,27.80
2018-08-07T08:05:21.904Z,27.90
2018-08-07T08:07:51.635Z,28.10
2018-08-07T08:10:20.688Z,28.20
2018-08-07T08:12:50.994Z,28.20
2018-08-07T08:15:19.490Z,28.30
2018-08-07T08:17:48.818Z,28.40
2018-08-07T08:20:23.197Z,28.40
2018-08-07T08:22:52.317Z,28.50
2018-08-07T08:25:20.813Z,28.60
2018-08-07T08:27:49.303Z,28.70
2018-08-07T08:30:20.280Z,28.80
2018-08-07T08:32:48.827Z,28.90
2018-08-07T08:35:19.609Z,29.10
2018-08-07T08:37:48.522Z,29.10
2018-08-07T08:40:18.717Z,29.30
2018-08-07T08:42:47.332Z,29.40
2018-08-07T08:45:19.272Z,29.50
2018-08-07T08:47:49.670Z,29.50
2018-08-07T08:50:19.525Z,29.60
2018-08-07T08:52:48.087Z,29.60
2018-08-07T08:55:16.717Z,29.70
2018-08-07T08:57:45.577Z,29.80
2018-08-07T09:00:17.517Z,29.90
2018-08-07T09:02:46.742Z,30.00
2018-08-07T09:05:15.401Z,30.10
2018-08-07T09:07:44.366Z,30.30
2018-08-07T09:10:16.397Z,30.40
2018-08-07T09:12:44.937Z,30.60
2018-08-07T09:15:13.889Z,30.60
2018-08-07T09:17:42.414Z,30.70
2018-08-07T09:20:13.897Z,30.80
2018-08-07T09:22:42.530Z,30.90
2018-08-07T09:25:19.146Z,31.10
2018-08-07T09:27:47.581Z,31.10
2018-08-07T09:30:18.620Z,31.10
2018-08-07T09:32:48.220Z,31.30
2018-08-07T09:35:27.351Z,31.40
2018-08-07T09:37:56.802Z,31.50
2018-08-07T09:40:25.416Z,31.50
2018-08-07T09:42:58.254Z,31.60
2018-08-07T09:45:33.465Z,31.60
2018-08-07T09:48:04.219Z,31.60
2018-08-07T09:50:33.378Z,31.60
2018-08-07T09:53:02.112Z,31.50
2018-08-07T09:55:31.077Z,31.50
2018-08-07T09:57:59.643Z,31.60
2018-08-07T10:00:33.433Z,31.70
2018-08-07T10:03:03.608Z,31.70
2018-08-07T10:05:50.931Z,31.90
2018-08-07T10:08:20.228Z,32.00
2018-08-07T10:10:50.641Z,32.00
2018-08-07T10:13:19.080Z,32.00
2018-08-07T10:15:47.601Z,32.10
2018-08-07T10:18:16.116Z,32.20
2018-08-07T10:20:44.999Z,32.30
2018-08-07T10:23:13.710Z,32.40
2018-08-07T10:25:42.488Z,32.60
2018-08-07T10:28:11.249Z,32.80
2018-08-07T10:30:45.172Z,33.10
2018-08-07T10:33:14.017Z,33.30
2018-08-07T10:35:42.679Z,33.60
2018-08-07T10:38:11.823Z,33.90
2018-08-07T10:40:40.959Z,34.30
2018-08-07T10:43:09.917Z,34.50
2018-08-07T10:45:38.468Z,34.70
2018-08-07T10:48:07.266Z,34.40
2018-08-07T10:50:36.023Z,34.90
2018-08-07T10:53:04.622Z,35.30
2018-08-07T10:55:33.184Z,34.90
2018-08-07T10:58:02.021Z,35.30
2018-08-07T11:00:32.831Z,35.50
2018-08-07T11:03:02.181Z,35.50
2018-08-07T11:05:31.365Z,35.70
2018-08-07T11:08:00.745Z,36.00
2018-08-07T11:10:29.849Z,36.30
2018-08-07T11:12:58.690Z,36.50
2018-08-07T11:15:31.092Z,36.50
2018-08-07T11:18:00.856Z,36.70
2018-08-07T11:20:31.274Z,36.80
2018-08-07T11:23:01.713Z,37.10
2018-08-07T11:25:31.414Z,37.00
2018-08-07T11:28:00.568Z,37.10
2018-08-07T11:30:30.188Z,37.40
2018-08-07T11:33:00.191Z,37.60
2018-08-07T11:35:29.606Z,37.80
2018-08-07T11:38:00.124Z,38.40
2018-08-07T11:40:28.960Z,38.40
2018-08-07T11:43:02.827Z,38.60
2018-08-07T11:45:31.965Z,38.80
2018-08-07T11:48:00.716Z,39.00
2018-08-07T11:50:30.497Z,38.10
2018-08-07T11:52:59.201Z,37.80
2018-08-07T11:55:27.810Z,37.90
2018-08-07T11:57:56.722Z,38.50
2018-08-07T12:00:27.872Z,38.40
2018-08-07T12:02:56.472Z,38.80
2018-08-07T12:05:25.130Z,39.20
2018-08-07T12:07:53.942Z,39.30
2018-08-07T12:10:22.533Z,39.40
2018-08-07T12:12:51.324Z,39.10
2018-08-07T12:16:27.352Z,39.20
2018-08-07T12:18:55.878Z,39.50
2018-08-07T12:21:24.440Z,39.10
2018-08-07T12:23:52.975Z,39.10
2018-08-07T12:26:21.558Z,38.90
2018-08-07T12:28:50.027Z,38.70
2018-08-07T12:31:18.528Z,38.60
2018-08-07T12:33:47.104Z,38.70
2018-08-07T12:36:15.681Z,38.70
2018-08-07T12:38:44.253Z,38.90
2018-08-07T12:41:12.752Z,39.10
2018-08-07T12:43:41.280Z,39.70
2018-08-07T12:46:09.841Z,39.80
2018-08-07T12:48:38.412Z,39.40
2018-08-07T12:51:07.036Z,39.20
2018-08-07T12:53:35.512Z,39.20
2018-08-07T12:56:04.069Z,39.30
2018-08-07T13:03:28.977Z,39.10
2018-08-07T13:05:57.537Z,38.90
2018-08-07T13:08:26.152Z,39.20
2018-08-07T13:10:54.744Z,39.00
2018-08-07T13:13:23.228Z,38.90
2018-08-07T13:15:51.784Z,39.30
2018-08-07T13:18:20.304Z,39.70
2018-08-07T13:20:48.766Z,39.80
2018-08-07T13:23:17.283Z,39.50
2018-08-07T13:25:45.729Z,39.50
2018-08-07T13:28:14.226Z,39.40
2018-08-07T13:30:42.662Z,39.40
2018-08-07T13:33:11.201Z,39.60
2018-08-07T13:35:39.715Z,39.90
2018-08-07T13:38:08.377Z,39.90
2018-08-07T13:40:36.954Z,39.70
2018-08-07T13:43:05.709Z,39.10
2018-08-07T13:45:34.269Z,38.90
2018-08-07T13:48:02.762Z,38.60
2018-08-07T13:50:31.451Z,38.70
2018-08-07T13:52:59.885Z,38.10
2018-08-07T13:55:28.298Z,38.10
2018-08-07T13:57:56.842Z,37.90
2018-08-07T14:00:27.307Z,37.70
2018-08-07T14:02:56.507Z,37.90
2018-08-07T14:05:25.521Z,38.00
2018-08-07T14:07:55.377Z,38.40
2018-08-07T14:10:25.104Z,38.60
2018-08-07T14:12:53.565Z,38.70
2018-08-07T14:15:23.465Z,38.70
2018-08-07T14:17:52.279Z,38.60
2018-08-07T14:20:21.063Z,38.60
2018-08-07T14:22:49.959Z,38.40
2018-08-07T14:25:26.754Z,37.70
2018-08-07T14:27:55.331Z,37.10
2018-08-07T14:30:25.111Z,36.70
2018-08-07T14:32:53.612Z,36.80
2018-08-07T14:35:22.160Z,36.70
2018-08-07T14:37:51.054Z,36.80
2018-08-07T14:40:22.054Z,36.70
2018-08-07T14:42:51.267Z,36.40
2018-08-07T14:45:21.159Z,35.90
2018-08-07T14:47:50.473Z,35.80
2018-08-07T14:50:20.514Z,35.70
2018-08-07T14:52:49.064Z,35.40
2018-08-07T14:55:17.539Z,35.40
2018-08-07T14:57:46.220Z,35.40
2018-08-07T15:00:19.153Z,35.40
2018-08-07T15:02:47.891Z,35.40
2018-08-07T15:05:16.400Z,35.30
2018-08-07T15:07:45.401Z,35.20
2018-08-07T15:10:16.097Z,35.20
2018-08-07T15:12:44.757Z,35.30
2018-08-07T15:15:15.961Z,35.30
2018-08-07T15:17:44.649Z,35.40
2018-08-07T15:20:14.912Z,35.60
2018-08-07T15:22:44.073Z,35.80
2018-08-07T15:25:14.137Z,35.70
2018-08-07T15:27:42.592Z,35.70
2018-08-07T15:30:28.467Z,35.70
2018-08-07T15:32:57.256Z,35.90
2018-08-07T15:35:27.519Z,36.10
2018-08-07T15:37:56.074Z,36.10
2018-08-07T15:40:24.568Z,36.30
2018-08-07T15:42:53.060Z,36.40
2018-08-07T15:45:23.251Z,36.40
2018-08-07T15:47:52.106Z,36.50
2018-08-07T15:50:21.573Z,36.50
2018-08-07T15:52:53.806Z,36.90
2018-08-07T15:55:23.950Z,37.20
2018-08-07T15:57:52.509Z,37.10
2018-08-07T16:00:26.590Z,36.70
2018-08-07T16:02:55.301Z,36.60
2018-08-07T16:05:23.802Z,36.50
2018-08-07T16:07:53.302Z,36.30
2018-08-07T16:10:22.334Z,36.00
2018-08-07T16:12:52.021Z,35.70
2018-08-07T16:15:20.587Z,35.40
2018-08-07T16:17:49.961Z,35.30
2018-08-07T16:20:18.721Z,35.00
2018-08-07T16:22:47.374Z,35.00
2018-08-07T16:25:17.284Z,35.00
2018-08-07T16:27:46.825Z,34.80
2018-08-07T16:30:19.752Z,34.70
2018-08-07T16:32:48.163Z,34.50
2018-08-07T16:35:17.092Z,34.30
2018-08-07T16:37:45.913Z,34.30
2018-08-07T16:40:16.033Z,34.10
2018-08-07T16:42:44.910Z,34.00
2018-08-07T16:45:15.647Z,34.10
2018-08-07T16:47:44.451Z,34.00
2018-08-07T16:50:15.095Z,34.00
2018-08-07T16:52:43.601Z,34.00
2018-08-07T16:55:12.455Z,33.80
2018-08-07T16:57:41.124Z,33.70
2018-08-07T17:00:11.320Z,33.50
2018-08-07T17:02:40.027Z,33.50
2018-08-07T17:05:11.262Z,33.50
2018-08-07T17:07:39.785Z,33.30
2018-08-07T17:10:11.711Z,33.30
2018-08-07T17:12:40.484Z,33.20
2018-08-07T17:15:09.966Z,33.10
2018-08-07T17:17:40.148Z,33.10
2018-08-07T17:20:10.359Z,33.00
2018-08-07T17:22:40.832Z,32.90
2018-08-07T17:25:11.816Z,32.80
2018-08-07T17:27:40.904Z,32.70
2018-08-07T17:30:13.768Z,32.60
2018-08-07T17:32:44.054Z,32.50
2018-08-07T17:35:17.855Z,32.50
2018-08-07T17:37:48.052Z,32.30
2018-08-07T17:40:18.639Z,32.20
2018-08-07T17:42:47.777Z,32.20
2018-08-07T17:45:16.513Z,32.10
2018-08-07T17:47:45.251Z,32.20
2018-08-07T17:50:17.524Z,32.00
2018-08-07T17:52:46.276Z,32.00
2018-08-07T17:55:14.841Z,31.80
2018-08-07T17:57:43.418Z,31.80
2018-08-07T18:00:14.615Z,31.90
2018-08-07T18:02:43.624Z,31.90
2018-08-07T18:05:12.293Z,32.20
2018-08-07T18:07:42.684Z,32.40
2018-08-07T18:10:12.362Z,32.60
2018-08-07T18:12:41.550Z,32.80
2018-08-07T18:15:13.001Z,32.80
2018-08-07T18:17:42.129Z,32.80
2018-08-07T18:20:15.851Z,32.80
2018-08-07T18:22:44.349Z,32.70
2018-08-07T18:25:13.306Z,32.50
2018-08-07T18:27:43.029Z,32.30
2018-08-07T18:30:14.286Z,32.10
2018-08-07T18:32:43.722Z,31.90
2018-08-07T18:35:14.777Z,31.70
2018-08-07T18:37:43.622Z,31.60
2018-08-07T18:40:12.453Z,31.40
2018-08-07T18:42:41.478Z,31.20
2018-08-07T18:45:11.896Z,31.00
2018-08-07T18:47:41.107Z,31.00
2018-08-07T18:50:12.157Z,30.90
2018-08-07T18:52:40.787Z,30.80
2018-08-07T18:55:12.814Z,30.70
2018-08-07T18:57:42.188Z,30.50
2018-08-07T19:00:13.344Z,30.40
2018-08-07T19:02:42.242Z,30.30
2018-08-07T19:05:13.657Z,30.30
2018-08-07T19:07:42.523Z,30.20
2018-08-07T19:10:12.285Z,30.10
2018-08-07T19:12:40.889Z,30.00
2018-08-07T19:15:10.141Z,29.80
2018-08-07T19:17:38.677Z,29.80
2018-08-07T19:20:07.878Z,29.60
2018-08-07T19:22:36.589Z,29.50
2018-08-07T19:25:06.761Z,29.40
2018-08-07T19:27:35.508Z,29.30
2018-08-07T19:30:05.862Z,29.30
2018-08-07T19:32:35.194Z,29.20
2018-08-07T19:35:03.971Z,29.10
2018-08-07T19:37:32.499Z,29.00
2018-08-07T19:40:01.181Z,28.90
2018-08-07T19:42:29.715Z,28.60
2018-08-07T19:44:58.833Z,28.50
2018-08-07T19:47:27.391Z,28.40
2018-08-07T19:49:55.820Z,28.40
2018-08-07T19:52:24.282Z,28.40
2018-08-07T19:54:53.017Z,28.40
2018-08-07T19:57:21.838Z,28.30
2018-08-07T19:59:50.429Z,28.20
2018-08-07T20:02:19.008Z,28.20
2018-08-07T20:04:47.488Z,28.10
2018-08-07T20:07:16.125Z,28.10
2018-08-07T20:09:44.698Z,27.90
2018-08-07T20:12:13.729Z,27.80
2018-08-07T20:14:42.533Z,27.80
2018-08-07T20:17:11.256Z,27.60
2018-08-07T20:19:39.707Z,27.50
2018-08-07T20:22:13.564Z,27.50
2018-08-07T20:24:42.175Z,27.30
2018-08-07T20:27:10.739Z,27.20
2018-08-07T20:29:39.254Z,27.20
2018-08-07T20:32:10.067Z,27.10
2018-08-07T20:34:39.027Z,27.00
2018-08-07T20:37:07.774Z,27.00
2018-08-07T20:39:36.326Z,26.90
2018-08-07T20:42:04.845Z,26.70
2018-08-07T20:44:33.324Z,26.60
2018-08-07T20:47:01.976Z,26.60
2018-08-07T20:49:30.825Z,26.60
2018-08-07T20:51:59.504Z,26.60
2018-08-07T20:54:28.389Z,26.50
2018-08-07T20:56:56.982Z,26.50
2018-08-07T20:59:25.529Z,26.40
2018-08-07T21:01:53.963Z,26.30
2018-08-07T21:04:23.081Z,26.30
2018-08-07T21:06:51.595Z,26.20
2018-08-07T21:09:19.990Z,26.20
2018-08-07T21:11:48.569Z,26.10
2018-08-07T21:14:17.021Z,26.10
2018-08-07T21:16:45.507Z,26.10
2018-08-07T21:19:14.022Z,26.00
2018-08-07T21:21:42.537Z,25.90
2018-08-07T21:24:11.012Z,25.80
2018-08-07T21:26:39.461Z,25.80
2018-08-07T21:29:07.888Z,25.70
2018-08-07T21:31:36.403Z,25.60
2018-08-07T21:34:04.872Z,25.60
2018-08-07T21:36:33.469Z,25.60
2018-08-07T21:39:01.931Z,25.60
2018-08-07T21:41:30.403Z,25.60
2018-08-07T21:43:58.901Z,25.50
2018-08-07T21:46:27.471Z,25.40
2018-08-07T21:48:56.041Z,25.40
2018-08-07T21:51:24.536Z,25.30
2018-08-07T21:53:53.087Z,25.10
2018-08-07T21:56:21.497Z,25.00
2018-08-07T21:58:50.026Z,24.80
2018-08-07T22:01:18.513Z,24.80
2018-08-07T22:03:47.151Z,24.60
2018-08-07T22:06:15.592Z,24.40
2018-08-07T22:08:44.100Z,24.40
2018-08-07T22:11:12.519Z,24.50
2018-08-07T22:13:41.052Z,24.50
2018-08-07T22:16:09.562Z,24.50
2018-08-07T22:18:38.074Z,24.50
2018-08-07T22:21:06.782Z,24.70
2018-08-07T22:23:35.292Z,24.70
2018-08-07T22:26:03.837Z,24.70
2018-08-07T22:31:00.630Z,24.70
2018-08-07T22:33:29.105Z,24.70
2018-08-07T22:35:57.629Z,24.70
2018-08-07T22:38:26.108Z,24.70
2018-08-07T22:40:54.520Z,24.70
2018-08-07T22:43:22.975Z,24.60
2018-08-07T22:45:51.434Z,24.50
2018-08-07T22:48:56.342Z,24.50
2018-08-07T22:51:24.984Z,24.40
2018-08-07T22:53:53.420Z,24.30
2018-08-07T22:56:21.996Z,24.20
2018-08-07T22:58:50.472Z,24.00
2018-08-07T23:01:19.022Z,24.10
2018-08-07T23:03:47.431Z,24.10
2018-08-07T23:06:15.964Z,24.20
2018-08-07T23:08:44.469Z,24.20
2018-08-07T23:11:12.930Z,24.10
2018-08-07T23:13:41.358Z,24.10
2018-08-07T23:16:09.717Z,24.00
2018-08-07T23:18:38.164Z,23.90
2018-08-07T23:21:06.597Z,23.70
2018-08-07T23:23:35.026Z,23.70
2018-08-07T23:26:03.521Z,23.70
2018-08-07T23:28:31.964Z,23.70
2018-08-07T23:31:00.440Z,23.70
2018-08-07T23:33:28.880Z,23.70
2018-08-07T23:35:57.319Z,23.70
2018-08-07T23:38:25.709Z,23.80
2018-08-07T23:40:54.103Z,23.70
2018-08-07T23:43:22.607Z,23.70
2018-08-07T23:45:51.028Z,23.70
2018-08-07T23:48:19.443Z,23.60
2018-08-07T23:50:47.866Z,23.60
2018-08-07T23:53:16.220Z,23.50
2018-08-07T23:55:44.639Z,23.50
2018-08-07T23:58:13.113Z,23.50
